Detalii statie BONGA [00001D00]

Toti senzorii

Date Temperatura solului [C]Precipitatii [mm]Voltaj baterie [mV]Leaf Wetness [Min]HC Air temperature [C]HC Relative humidity [%]Punctul de roua [C]
medieminmaxsumaultimatimpmedieminmaxmediemediemin
2017-10-20 09:00:00 10.3 9.9 10.9 0 7352 10.58 9.57 11.67 0 0 0
2017-10-20 10:00:00 11.4 11 11.9 0 7352 14.04 11.88 16.01 0 0 0
2017-10-20 11:00:00 12.5 12 13.1 0 7342 18.15 16.65 19.42 0 0 0
2017-10-20 12:00:00 13.6 13 14.2 0 7342 20.3 19.09 21.12 0 0 0
2017-10-20 13:00:00 14.6 14.2 15.1 0 7332 21.85 20.98 22.86 0 0 0
2017-10-20 14:00:00 15.2 15 15.5 0 7332 22.94 22.56 23.25 0 0 0
2017-10-20 15:00:00 15.5 15.4 15.6 0 7332 23.14 22.73 23.44 0 0 0
2017-10-20 16:00:00 15.2 14.9 15.4 0 7186 22.79 22.03 23.18 0 0 0
2017-10-20 17:00:00 14.3 13.6 15 0 7020 19.89 17.37 22.11 0 0 0
2017-10-20 18:00:00 12.8 12.5 13.4 0 6992 15.84 15.36 16.83 0 0 0
2017-10-20 19:00:00 12.2 11.9 12.6 0 6992 14.18 13.16 15.36 0 0 0
2017-10-20 20:00:00 11.9 11.8 12.2 0 6982 13.95 13.05 14.98 0 0 0
2017-10-20 21:00:00 11.7 11.5 12.1 0 6972 13.08 12.52 13.74 0 0 0
2017-10-20 22:00:00 12 11.7 12.2 0 6972 12.86 11.81 13.62 0 0 0
2017-10-20 23:00:00 11.1 10.6 11.7 0 6952 11 9.99 11.93 0 0 0
2017-10-21 00:00:00 10.3 10.1 10.7 0 6932 10.17 9.56 10.69 0 0 0
2017-10-21 01:00:00 10.1 10 10.4 0 6922 9.32 8.61 10.24 0 0 0
2017-10-21 02:00:00 11 10.3 11.5 0 6914 10.91 10.36 11.16 0 0 0
2017-10-21 03:00:00 11.7 11.5 11.9 0 6904 11.37 11.07 11.77 0 0 0
2017-10-21 04:00:00 11.9 11.9 12 0 6894 11.87 11.79 11.95 0 0 0
2017-10-21 05:00:00 12.1 12 12.3 0 6894 12.14 11.98 12.34 0 0 0
2017-10-21 06:00:00 12.1 12.1 12.3 0 6894 12.38 12.34 12.42 0 0 0
2017-10-21 07:00:00 12.1 12.1 12.3 0 6884 11.91 11.67 12.31 0 0 0
2017-10-21 08:00:00 12.1 12.1 12.2 0 6894 11.85 11.71 11.99 0 0 0
2017-10-21 09:00:00 12.3 12.2 12.4 0 6962 12.22 11.93 12.53 0 0 0
2017-10-21 10:00:00 12.5 12.4 12.8 0 7138 12.48 12.12 13.26 0 0 0
2017-10-21 11:00:00 13 12.9 13.1 0 7236 13.11 12.93 13.32 0 0 0
2017-10-21 12:00:00 13.1 13 13.2 0 7246 12.74 12.57 13.02 0 0 0
2017-10-21 13:00:00 13.7 13.3 14.3 0 7342 14.05 12.89 15.23 0 0 0
2017-10-21 14:00:00 14.6 14.3 14.8 0 7342 16.44 15.16 17.38 0 0 0
2017-10-21 15:00:00 14.7 14.6 14.8 0 7254 17.34 16.47 18.03 0 0 0
2017-10-21 16:00:00 14 13.9 14.5 0 7332 16.18 15.56 17.27 0 0 0
2017-10-21 17:00:00 13.5 13.3 13.8 0 7030 14.88 14.41 15.28 0 0 0
2017-10-21 18:00:00 13.1 13 13.3 0 7020 14.14 13.5 14.52 0 0 0
2017-10-21 19:00:00 12.7 12.5 13 0 7000 12.77 12.35 13.23 0 0 0
2017-10-21 20:00:00 12.6 12.5 12.7 0 7000 13.13 12.85 13.3 0 0 0
2017-10-21 21:00:00 12.5 12.5 12.7 0 6992 12.93 12.88 12.99 0 0 0
2017-10-21 22:00:00 12.4 12.3 12.5 0 6992 12.82 12.68 12.91 0 0 0
2017-10-21 23:00:00 12.3 12.2 12.4 0 6972 12.54 12.4 12.65 0 0 0
2017-10-22 00:00:00 12.3 12.2 12.4 0 6962 12.1 11.88 12.37 0 0 0
2017-10-22 01:00:00 12.1 11.7 12.4 0 6942 11.4 10.6 11.94 0 0 0
2017-10-22 02:00:00 11.8 11.6 12.1 0 6922 11.31 11.06 11.61 0 0 0
2017-10-22 03:00:00 11.9 11.8 12 0 6914 10.96 10.67 11.21 0 0 0
2017-10-22 04:00:00 11.7 11.7 11.9 0 6894 11.07 10.8 11.33 0 0 0
2017-10-22 05:00:00 11.7 11.7 11.9 0 6894 11.51 11.3 11.69 0 0 0
2017-10-22 06:00:00 11.7 11.7 11.9 0 6894 11.65 11.51 11.75 0 0 0
2017-10-22 07:00:00 11.8 11.6 11.9 0 6884 11.75 11.7 11.8 0 0 0
2017-10-22 08:00:00 11.7 11.7 12 0 6952 11.83 11.73 12.01 0 0 0